sensor_id;sensor_type;location;lat;lon;timestamp;temperature;humidity
72206;DHT22;60111;48.286;7.812;2023-07-31T00:02:02;15.60;73.10
72206;DHT22;60111;48.286;7.812;2023-07-31T00:04:35;15.70;72.40
72206;DHT22;60111;48.286;7.812;2023-07-31T00:07:09;15.60;73.10
72206;DHT22;60111;48.286;7.812;2023-07-31T00:09:41;15.60;73.80
72206;DHT22;60111;48.286;7.812;2023-07-31T00:12:14;15.50;74.30
72206;DHT22;60111;48.286;7.812;2023-07-31T00:14:46;15.50;74.20
72206;DHT22;60111;48.286;7.812;2023-07-31T00:17:19;15.40;73.90
72206;DHT22;60111;48.286;7.812;2023-07-31T00:19:51;15.40;74.00
72206;DHT22;60111;48.286;7.812;2023-07-31T00:22:24;15.40;74.50
72206;DHT22;60111;48.286;7.812;2023-07-31T00:24:57;15.30;74.40
72206;DHT22;60111;48.286;7.812;2023-07-31T00:27:29;15.30;74.90
72206;DHT22;60111;48.286;7.812;2023-07-31T00:30:02;15.20;74.90
72206;DHT22;60111;48.286;7.812;2023-07-31T00:32:35;15.20;74.90
72206;DHT22;60111;48.286;7.812;2023-07-31T00:35:09;15.10;75.10
72206;DHT22;60111;48.286;7.812;2023-07-31T00:37:41;15.10;74.70
72206;DHT22;60111;48.286;7.812;2023-07-31T00:40:14;15.10;75.30
72206;DHT22;60111;48.286;7.812;2023-07-31T00:42:47;15.10;75.10
72206;DHT22;60111;48.286;7.812;2023-07-31T00:45:20;15.10;74.40
72206;DHT22;60111;48.286;7.812;2023-07-31T00:47:54;15.10;74.40
72206;DHT22;60111;48.286;7.812;2023-07-31T00:50:27;15.10;74.70
72206;DHT22;60111;48.286;7.812;2023-07-31T00:53:00;15.10;74.80
72206;DHT22;60111;48.286;7.812;2023-07-31T00:55:33;15.20;74.50
72206;DHT22;60111;48.286;7.812;2023-07-31T00:58:06;15.20;74.70
72206;DHT22;60111;48.286;7.812;2023-07-31T01:00:39;15.20;74.70
72206;DHT22;60111;48.286;7.812;2023-07-31T01:03:12;15.20;74.80
72206;DHT22;60111;48.286;7.812;2023-07-31T01:06:15;15.20;74.70
72206;DHT22;60111;48.286;7.812;2023-07-31T01:09:02;15.30;74.90
72206;DHT22;60111;48.286;7.812;2023-07-31T01:11:46;15.30;74.50
72206;DHT22;60111;48.286;7.812;2023-07-31T01:14:17;15.30;74.20
72206;DHT22;60111;48.286;7.812;2023-07-31T01:16:50;15.30;74.50
72206;DHT22;60111;48.286;7.812;2023-07-31T01:19:24;15.30;74.80
72206;DHT22;60111;48.286;7.812;2023-07-31T01:25:16;15.30;75.10
72206;DHT22;60111;48.286;7.812;2023-07-31T01:27:59;15.30;75.10
72206;DHT22;60111;48.286;7.812;2023-07-31T01:30:37;15.30;75.40
72206;DHT22;60111;48.286;7.812;2023-07-31T01:33:09;15.40;75.30
72206;DHT22;60111;48.286;7.812;2023-07-31T01:35:45;15.60;74.30
72206;DHT22;60111;48.286;7.812;2023-07-31T01:38:22;15.70;73.90
72206;DHT22;60111;48.286;7.812;2023-07-31T01:40:54;15.70;74.30
72206;DHT22;60111;48.286;7.812;2023-07-31T01:43:27;15.70;74.70
72206;DHT22;60111;48.286;7.812;2023-07-31T01:46:00;15.50;75.30
72206;DHT22;60111;48.286;7.812;2023-07-31T01:48:32;15.40;75.60
72206;DHT22;60111;48.286;7.812;2023-07-31T01:51:06;15.30;75.90
72206;DHT22;60111;48.286;7.812;2023-07-31T01:53:39;15.30;76.20
72206;DHT22;60111;48.286;7.812;2023-07-31T01:56:12;15.30;76.00
72206;DHT22;60111;48.286;7.812;2023-07-31T01:58:44;15.30;76.10
72206;DHT22;60111;48.286;7.812;2023-07-31T02:01:17;15.30;76.10
72206;DHT22;60111;48.286;7.812;2023-07-31T02:03:49;15.30;76.40
72206;DHT22;60111;48.286;7.812;2023-07-31T02:06:22;15.30;76.40
72206;DHT22;60111;48.286;7.812;2023-07-31T02:08:55;15.40;75.40
72206;DHT22;60111;48.286;7.812;2023-07-31T02:11:27;15.40;75.40
72206;DHT22;60111;48.286;7.812;2023-07-31T02:14:00;15.50;75.50
72206;DHT22;60111;48.286;7.812;2023-07-31T02:16:33;15.50;75.60
72206;DHT22;60111;48.286;7.812;2023-07-31T02:19:05;15.60;74.60
72206;DHT22;60111;48.286;7.812;2023-07-31T02:21:38;15.60;74.40
72206;DHT22;60111;48.286;7.812;2023-07-31T02:24:10;15.60;74.40
72206;DHT22;60111;48.286;7.812;2023-07-31T02:26:43;15.50;75.00
72206;DHT22;60111;48.286;7.812;2023-07-31T02:29:15;15.50;74.80
72206;DHT22;60111;48.286;7.812;2023-07-31T02:31:48;15.50;74.60
72206;DHT22;60111;48.286;7.812;2023-07-31T02:34:21;15.50;74.90
72206;DHT22;60111;48.286;7.812;2023-07-31T02:36:53;15.40;74.80
72206;DHT22;60111;48.286;7.812;2023-07-31T02:39:26;15.50;74.60
72206;DHT22;60111;48.286;7.812;2023-07-31T02:41:59;15.50;74.40
72206;DHT22;60111;48.286;7.812;2023-07-31T02:44:32;15.50;74.60
72206;DHT22;60111;48.286;7.812;2023-07-31T02:47:04;15.50;75.10
72206;DHT22;60111;48.286;7.812;2023-07-31T02:49:37;15.50;74.80
72206;DHT22;60111;48.286;7.812;2023-07-31T02:52:09;15.40;74.90
72206;DHT22;60111;48.286;7.812;2023-07-31T02:54:42;15.50;74.80
72206;DHT22;60111;48.286;7.812;2023-07-31T02:57:15;15.50;74.70
72206;DHT22;60111;48.286;7.812;2023-07-31T02:59:47;15.50;74.70
72206;DHT22;60111;48.286;7.812;2023-07-31T03:02:20;15.40;75.40
72206;DHT22;60111;48.286;7.812;2023-07-31T03:04:53;15.40;75.90
72206;DHT22;60111;48.286;7.812;2023-07-31T03:07:25;15.40;76.30
72206;DHT22;60111;48.286;7.812;2023-07-31T03:09:58;15.40;76.30
72206;DHT22;60111;48.286;7.812;2023-07-31T03:12:30;15.30;76.40
72206;DHT22;60111;48.286;7.812;2023-07-31T03:15:03;15.30;76.30
72206;DHT22;60111;48.286;7.812;2023-07-31T03:17:36;15.30;76.50
72206;DHT22;60111;48.286;7.812;2023-07-31T03:20:10;15.30;76.00
72206;DHT22;60111;48.286;7.812;2023-07-31T03:22:43;15.30;75.70
72206;DHT22;60111;48.286;7.812;2023-07-31T03:25:15;15.30;75.70
72206;DHT22;60111;48.286;7.812;2023-07-31T03:27:48;15.30;75.60
72206;DHT22;60111;48.286;7.812;2023-07-31T03:30:21;15.30;75.40
72206;DHT22;60111;48.286;7.812;2023-07-31T03:32:53;15.30;75.30
72206;DHT22;60111;48.286;7.812;2023-07-31T03:35:26;15.40;75.10
72206;DHT22;60111;48.286;7.812;2023-07-31T03:37:58;15.40;74.60
72206;DHT22;60111;48.286;7.812;2023-07-31T03:40:31;15.50;74.10
72206;DHT22;60111;48.286;7.812;2023-07-31T03:43:03;15.40;73.90
72206;DHT22;60111;48.286;7.812;2023-07-31T03:45:36;15.40;74.40
72206;DHT22;60111;48.286;7.812;2023-07-31T03:48:09;15.40;74.10
72206;DHT22;60111;48.286;7.812;2023-07-31T03:50:42;15.50;73.60
72206;DHT22;60111;48.286;7.812;2023-07-31T03:53:15;15.50;73.60
72206;DHT22;60111;48.286;7.812;2023-07-31T03:55:47;15.50;73.40
72206;DHT22;60111;48.286;7.812;2023-07-31T03:58:20;15.50;73.60
72206;DHT22;60111;48.286;7.812;2023-07-31T04:00:52;15.50;73.90
72206;DHT22;60111;48.286;7.812;2023-07-31T04:03:25;15.50;73.30
72206;DHT22;60111;48.286;7.812;2023-07-31T04:05:58;15.50;73.60
72206;DHT22;60111;48.286;7.812;2023-07-31T04:08:31;15.50;73.70
72206;DHT22;60111;48.286;7.812;2023-07-31T04:11:03;15.50;73.50
72206;DHT22;60111;48.286;7.812;2023-07-31T04:13:36;15.50;73.50
72206;DHT22;60111;48.286;7.812;2023-07-31T04:16:08;15.50;73.20
72206;DHT22;60111;48.286;7.812;2023-07-31T04:18:41;15.50;73.20
72206;DHT22;60111;48.286;7.812;2023-07-31T04:21:13;15.50;73.30
72206;DHT22;60111;48.286;7.812;2023-07-31T04:23:46;15.50;73.20
72206;DHT22;60111;48.286;7.812;2023-07-31T04:26:19;15.50;73.50
72206;DHT22;60111;48.286;7.812;2023-07-31T04:28:51;15.50;73.50
72206;DHT22;60111;48.286;7.812;2023-07-31T04:31:24;15.50;73.40
72206;DHT22;60111;48.286;7.812;2023-07-31T04:33:56;15.50;73.50
72206;DHT22;60111;48.286;7.812;2023-07-31T04:36:29;15.60;73.50
72206;DHT22;60111;48.286;7.812;2023-07-31T04:39:01;15.60;72.70
72206;DHT22;60111;48.286;7.812;2023-07-31T04:41:34;15.70;72.50
72206;DHT22;60111;48.286;7.812;2023-07-31T04:44:07;15.70;72.80
72206;DHT22;60111;48.286;7.812;2023-07-31T04:46:40;15.60;72.70
72206;DHT22;60111;48.286;7.812;2023-07-31T04:49:12;15.70;72.50
72206;DHT22;60111;48.286;7.812;2023-07-31T04:51:45;15.70;72.60
72206;DHT22;60111;48.286;7.812;2023-07-31T04:54:17;15.80;72.30
72206;DHT22;60111;48.286;7.812;2023-07-31T04:56:50;15.90;71.70
72206;DHT22;60111;48.286;7.812;2023-07-31T04:59:24;15.80;72.10
72206;DHT22;60111;48.286;7.812;2023-07-31T05:01:56;15.80;72.50
72206;DHT22;60111;48.286;7.812;2023-07-31T05:04:29;15.80;73.20
72206;DHT22;60111;48.286;7.812;2023-07-31T05:07:01;15.80;73.10
72206;DHT22;60111;48.286;7.812;2023-07-31T05:09:34;15.80;73.00
72206;DHT22;60111;48.286;7.812;2023-07-31T05:12:07;15.80;73.20
72206;DHT22;60111;48.286;7.812;2023-07-31T05:14:40;15.80;72.70
72206;DHT22;60111;48.286;7.812;2023-07-31T05:17:12;15.80;72.30
72206;DHT22;60111;48.286;7.812;2023-07-31T05:19:45;15.80;72.40
72206;DHT22;60111;48.286;7.812;2023-07-31T05:22:18;15.90;72.80
72206;DHT22;60111;48.286;7.812;2023-07-31T05:24:50;15.90;72.90
72206;DHT22;60111;48.286;7.812;2023-07-31T05:27:23;15.90;73.10
72206;DHT22;60111;48.286;7.812;2023-07-31T05:29:55;16.00;74.90
72206;DHT22;60111;48.286;7.812;2023-07-31T05:32:28;16.00;74.20
72206;DHT22;60111;48.286;7.812;2023-07-31T05:35:00;16.10;73.30
72206;DHT22;60111;48.286;7.812;2023-07-31T05:37:33;16.10;73.60
72206;DHT22;60111;48.286;7.812;2023-07-31T05:40:06;16.10;74.00
72206;DHT22;60111;48.286;7.812;2023-07-31T05:42:40;16.10;72.80
72206;DHT22;60111;48.286;7.812;2023-07-31T05:45:12;16.10;73.00
72206;DHT22;60111;48.286;7.812;2023-07-31T05:47:45;16.10;73.20
72206;DHT22;60111;48.286;7.812;2023-07-31T05:50:18;16.20;72.40
72206;DHT22;60111;48.286;7.812;2023-07-31T05:52:50;16.20;72.10
72206;DHT22;60111;48.286;7.812;2023-07-31T05:55:24;16.20;71.20
72206;DHT22;60111;48.286;7.812;2023-07-31T05:57:58;16.30;71.10
72206;DHT22;60111;48.286;7.812;2023-07-31T06:00:31;16.40;70.60
72206;DHT22;60111;48.286;7.812;2023-07-31T06:03:04;16.40;70.90
72206;DHT22;60111;48.286;7.812;2023-07-31T06:05:36;16.40;71.10
72206;DHT22;60111;48.286;7.812;2023-07-31T06:08:09;16.50;70.90
72206;DHT22;60111;48.286;7.812;2023-07-31T06:10:41;16.60;69.60
72206;DHT22;60111;48.286;7.812;2023-07-31T06:13:14;16.70;70.10
72206;DHT22;60111;48.286;7.812;2023-07-31T06:15:46;16.70;69.70
72206;DHT22;60111;48.286;7.812;2023-07-31T06:18:19;16.80;69.60
72206;DHT22;60111;48.286;7.812;2023-07-31T06:20:51;16.90;69.60
72206;DHT22;60111;48.286;7.812;2023-07-31T06:23:25;17.00;68.40
72206;DHT22;60111;48.286;7.812;2023-07-31T06:25:57;17.10;68.50
72206;DHT22;60111;48.286;7.812;2023-07-31T06:28:31;17.20;67.90
72206;DHT22;60111;48.286;7.812;2023-07-31T06:31:04;17.30;67.60
72206;DHT22;60111;48.286;7.812;2023-07-31T06:33:36;17.30;67.50
72206;DHT22;60111;48.286;7.812;2023-07-31T06:36:10;17.20;67.80
72206;DHT22;60111;48.286;7.812;2023-07-31T06:38:43;17.20;68.50
72206;DHT22;60111;48.286;7.812;2023-07-31T06:41:15;17.20;67.90
72206;DHT22;60111;48.286;7.812;2023-07-31T06:43:48;17.20;67.40
72206;DHT22;60111;48.286;7.812;2023-07-31T06:46:20;17.20;68.20
72206;DHT22;60111;48.286;7.812;2023-07-31T06:48:53;17.20;68.50
72206;DHT22;60111;48.286;7.812;2023-07-31T06:51:26;17.30;67.60
72206;DHT22;60111;48.286;7.812;2023-07-31T06:53:58;17.40;67.30
72206;DHT22;60111;48.286;7.812;2023-07-31T06:56:31;17.40;67.10
72206;DHT22;60111;48.286;7.812;2023-07-31T06:59:04;17.40;67.30
72206;DHT22;60111;48.286;7.812;2023-07-31T07:01:36;17.40;67.60
72206;DHT22;60111;48.286;7.812;2023-07-31T07:04:09;17.50;67.40
72206;DHT22;60111;48.286;7.812;2023-07-31T07:06:41;17.50;67.60
72206;DHT22;60111;48.286;7.812;2023-07-31T07:09:14;17.60;67.10
72206;DHT22;60111;48.286;7.812;2023-07-31T07:11:46;17.60;66.90
72206;DHT22;60111;48.286;7.812;2023-07-31T07:14:19;17.60;67.20
72206;DHT22;60111;48.286;7.812;2023-07-31T07:16:52;17.60;67.00
72206;DHT22;60111;48.286;7.812;2023-07-31T07:19:24;17.60;67.80
72206;DHT22;60111;48.286;7.812;2023-07-31T07:21:57;17.70;67.10
72206;DHT22;60111;48.286;7.812;2023-07-31T07:24:31;17.90;67.10
72206;DHT22;60111;48.286;7.812;2023-07-31T07:27:04;18.10;65.90
72206;DHT22;60111;48.286;7.812;2023-07-31T07:29:38;18.30;65.80
72206;DHT22;60111;48.286;7.812;2023-07-31T07:32:10;18.40;65.20
72206;DHT22;60111;48.286;7.812;2023-07-31T07:34:43;18.60;66.10
72206;DHT22;60111;48.286;7.812;2023-07-31T07:37:16;18.90;64.60
72206;DHT22;60111;48.286;7.812;2023-07-31T07:39:49;19.20;64.50
72206;DHT22;60111;48.286;7.812;2023-07-31T07:42:21;19.50;63.10
72206;DHT22;60111;48.286;7.812;2023-07-31T07:44:54;19.60;61.70
72206;DHT22;60111;48.286;7.812;2023-07-31T07:47:27;19.70;61.70
72206;DHT22;60111;48.286;7.812;2023-07-31T07:50:00;19.80;61.40
72206;DHT22;60111;48.286;7.812;2023-07-31T07:52:33;19.80;60.50
72206;DHT22;60111;48.286;7.812;2023-07-31T07:55:06;19.80;61.20
72206;DHT22;60111;48.286;7.812;2023-07-31T07:57:39;19.90;61.50
72206;DHT22;60111;48.286;7.812;2023-07-31T08:00:13;20.00;61.70
72206;DHT22;60111;48.286;7.812;2023-07-31T08:02:45;20.00;60.10
72206;DHT22;60111;48.286;7.812;2023-07-31T08:05:19;20.00;60.80
72206;DHT22;60111;48.286;7.812;2023-07-31T08:07:51;20.10;60.50
72206;DHT22;60111;48.286;7.812;2023-07-31T08:10:24;20.20;60.20
72206;DHT22;60111;48.286;7.812;2023-07-31T08:12:56;20.20;59.70
72206;DHT22;60111;48.286;7.812;2023-07-31T08:15:29;20.20;60.20
72206;DHT22;60111;48.286;7.812;2023-07-31T08:18:01;20.20;60.70
72206;DHT22;60111;48.286;7.812;2023-07-31T08:20:34;20.30;59.60
72206;DHT22;60111;48.286;7.812;2023-07-31T08:23:07;20.40;59.90
72206;DHT22;60111;48.286;7.812;2023-07-31T08:25:39;20.40;59.50
72206;DHT22;60111;48.286;7.812;2023-07-31T08:28:12;20.50;60.00
72206;DHT22;60111;48.286;7.812;2023-07-31T08:30:44;20.50;58.50
72206;DHT22;60111;48.286;7.812;2023-07-31T08:33:17;20.40;58.70
72206;DHT22;60111;48.286;7.812;2023-07-31T08:35:50;20.40;57.90
72206;DHT22;60111;48.286;7.812;2023-07-31T08:38:22;20.30;58.30
72206;DHT22;60111;48.286;7.812;2023-07-31T08:41:00;20.40;59.30
72206;DHT22;60111;48.286;7.812;2023-07-31T08:43:32;20.50;58.90
72206;DHT22;60111;48.286;7.812;2023-07-31T08:46:06;20.60;58.30
72206;DHT22;60111;48.286;7.812;2023-07-31T08:48:42;20.60;59.10
72206;DHT22;60111;48.286;7.812;2023-07-31T08:51:15;20.60;58.50
72206;DHT22;60111;48.286;7.812;2023-07-31T08:53:48;20.70;58.80
72206;DHT22;60111;48.286;7.812;2023-07-31T08:56:21;20.80;58.00
72206;DHT22;60111;48.286;7.812;2023-07-31T08:58:54;20.80;58.00
72206;DHT22;60111;48.286;7.812;2023-07-31T09:01:29;20.70;57.90
72206;DHT22;60111;48.286;7.812;2023-07-31T09:04:04;20.80;57.10
72206;DHT22;60111;48.286;7.812;2023-07-31T09:06:37;20.80;56.20
72206;DHT22;60111;48.286;7.812;2023-07-31T09:09:12;20.80;56.80
72206;DHT22;60111;48.286;7.812;2023-07-31T09:11:44;21.00;58.30
72206;DHT22;60111;48.286;7.812;2023-07-31T09:14:18;21.40;56.90
72206;DHT22;60111;48.286;7.812;2023-07-31T09:16:51;21.50;53.30
72206;DHT22;60111;48.286;7.812;2023-07-31T09:19:32;21.40;54.00
72206;DHT22;60111;48.286;7.812;2023-07-31T09:22:05;21.60;54.50
72206;DHT22;60111;48.286;7.812;2023-07-31T09:24:37;21.80;55.40
72206;DHT22;60111;48.286;7.812;2023-07-31T09:27:10;21.80;54.20
72206;DHT22;60111;48.286;7.812;2023-07-31T09:29:43;21.70;54.60
72206;DHT22;60111;48.286;7.812;2023-07-31T09:32:18;21.60;53.30
72206;DHT22;60111;48.286;7.812;2023-07-31T09:34:51;21.50;53.90
72206;DHT22;60111;48.286;7.812;2023-07-31T09:37:23;21.40;54.10
72206;DHT22;60111;48.286;7.812;2023-07-31T09:39:56;21.60;54.00
72206;DHT22;60111;48.286;7.812;2023-07-31T09:42:30;21.50;54.30
72206;DHT22;60111;48.286;7.812;2023-07-31T09:45:10;21.50;53.00
72206;DHT22;60111;48.286;7.812;2023-07-31T09:47:46;21.70;53.80
72206;DHT22;60111;48.286;7.812;2023-07-31T09:50:24;21.90;54.20
72206;DHT22;60111;48.286;7.812;2023-07-31T09:52:57;22.20;52.60
72206;DHT22;60111;48.286;7.812;2023-07-31T09:55:30;22.30;52.80
72206;DHT22;60111;48.286;7.812;2023-07-31T09:58:08;22.40;52.20
72206;DHT22;60111;48.286;7.812;2023-07-31T10:00:41;22.40;51.50
72206;DHT22;60111;48.286;7.812;2023-07-31T10:03:15;22.40;52.20
72206;DHT22;60111;48.286;7.812;2023-07-31T10:05:50;22.50;52.10
72206;DHT22;60111;48.286;7.812;2023-07-31T10:08:30;22.70;52.20
72206;DHT22;60111;48.286;7.812;2023-07-31T10:11:03;22.70;52.10
72206;DHT22;60111;48.286;7.812;2023-07-31T10:13:36;22.80;51.40
72206;DHT22;60111;48.286;7.812;2023-07-31T10:16:09;22.70;51.00
72206;DHT22;60111;48.286;7.812;2023-07-31T10:18:43;22.60;50.50
72206;DHT22;60111;48.286;7.812;2023-07-31T10:21:16;22.50;50.20
72206;DHT22;60111;48.286;7.812;2023-07-31T10:23:50;22.50;50.50
72206;DHT22;60111;48.286;7.812;2023-07-31T10:26:23;22.30;49.80
72206;DHT22;60111;48.286;7.812;2023-07-31T10:28:58;22.40;50.40
72206;DHT22;60111;48.286;7.812;2023-07-31T10:31:33;22.50;50.40
72206;DHT22;60111;48.286;7.812;2023-07-31T10:34:06;22.80;51.10
72206;DHT22;60111;48.286;7.812;2023-07-31T10:36:39;23.00;50.70
72206;DHT22;60111;48.286;7.812;2023-07-31T10:39:33;23.30;50.00
72206;DHT22;60111;48.286;7.812;2023-07-31T10:42:12;23.30;50.00
72206;DHT22;60111;48.286;7.812;2023-07-31T10:44:49;23.20;49.60
72206;DHT22;60111;48.286;7.812;2023-07-31T10:47:21;23.10;48.60
72206;DHT22;60111;48.286;7.812;2023-07-31T10:52:51;22.80;49.70
72206;DHT22;60111;48.286;7.812;2023-07-31T10:55:41;22.70;49.30
72206;DHT22;60111;48.286;7.812;2023-07-31T10:58:14;22.60;49.20
72206;DHT22;60111;48.286;7.812;2023-07-31T11:00:48;22.40;50.60
72206;DHT22;60111;48.286;7.812;2023-07-31T11:03:25;22.30;50.80
72206;DHT22;60111;48.286;7.812;2023-07-31T11:06:01;22.30;50.30
72206;DHT22;60111;48.286;7.812;2023-07-31T11:08:42;22.30;51.70
72206;DHT22;60111;48.286;7.812;2023-07-31T11:11:19;22.30;51.70
72206;DHT22;60111;48.286;7.812;2023-07-31T11:13:52;22.30;50.80
72206;DHT22;60111;48.286;7.812;2023-07-31T11:16:26;22.30;51.60
72206;DHT22;60111;48.286;7.812;2023-07-31T11:18:58;22.30;51.70
72206;DHT22;60111;48.286;7.812;2023-07-31T11:21:31;22.30;52.20
72206;DHT22;60111;48.286;7.812;2023-07-31T11:24:04;22.20;51.80
72206;DHT22;60111;48.286;7.812;2023-07-31T11:26:37;22.10;52.30
72206;DHT22;60111;48.286;7.812;2023-07-31T11:29:13;22.00;52.10
72206;DHT22;60111;48.286;7.812;2023-07-31T11:31:47;22.00;53.00
72206;DHT22;60111;48.286;7.812;2023-07-31T11:34:20;21.90;52.50
72206;DHT22;60111;48.286;7.812;2023-07-31T11:36:54;21.90;53.40
72206;DHT22;60111;48.286;7.812;2023-07-31T11:39:30;21.90;52.60
72206;DHT22;60111;48.286;7.812;2023-07-31T11:42:04;21.80;52.90
72206;DHT22;60111;48.286;7.812;2023-07-31T11:44:40;21.80;53.10
72206;DHT22;60111;48.286;7.812;2023-07-31T11:47:15;21.80;53.30
72206;DHT22;60111;48.286;7.812;2023-07-31T11:49:49;21.80;53.70
72206;DHT22;60111;48.286;7.812;2023-07-31T11:52:22;21.80;53.60
72206;DHT22;60111;48.286;7.812;2023-07-31T11:54:55;21.80;54.90
72206;DHT22;60111;48.286;7.812;2023-07-31T11:57:29;21.80;54.20
72206;DHT22;60111;48.286;7.812;2023-07-31T12:00:02;21.90;57.20
72206;DHT22;60111;48.286;7.812;2023-07-31T12:02:35;22.20;53.50
72206;DHT22;60111;48.286;7.812;2023-07-31T12:05:12;22.30;53.10
72206;DHT22;60111;48.286;7.812;2023-07-31T12:07:50;22.50;52.50
72206;DHT22;60111;48.286;7.812;2023-07-31T12:10:31;22.60;52.20
72206;DHT22;60111;48.286;7.812;2023-07-31T12:13:06;22.60;53.30
72206;DHT22;60111;48.286;7.812;2023-07-31T12:15:44;22.70;54.00
72206;DHT22;60111;48.286;7.812;2023-07-31T12:18:21;22.80;55.10
72206;DHT22;60111;48.286;7.812;2023-07-31T12:20:59;22.90;52.60
72206;DHT22;60111;48.286;7.812;2023-07-31T12:23:33;22.90;52.60
72206;DHT22;60111;48.286;7.812;2023-07-31T12:26:08;22.90;53.00
72206;DHT22;60111;48.286;7.812;2023-07-31T12:29:01;22.90;52.50
72206;DHT22;60111;48.286;7.812;2023-07-31T12:31:34;23.00;52.10
72206;DHT22;60111;48.286;7.812;2023-07-31T12:37:11;23.40;51.00
72206;DHT22;60111;48.286;7.812;2023-07-31T12:39:44;23.60;50.60
72206;DHT22;60111;48.286;7.812;2023-07-31T12:42:18;23.60;48.90
72206;DHT22;60111;48.286;7.812;2023-07-31T12:44:50;23.60;51.20
72206;DHT22;60111;48.286;7.812;2023-07-31T12:47:23;23.50;50.50
72206;DHT22;60111;48.286;7.812;2023-07-31T12:49:55;23.40;51.30
72206;DHT22;60111;48.286;7.812;2023-07-31T12:52:28;23.30;50.10
72206;DHT22;60111;48.286;7.812;2023-07-31T12:55:00;23.40;49.40
72206;DHT22;60111;48.286;7.812;2023-07-31T12:57:33;23.50;49.80
72206;DHT22;60111;48.286;7.812;2023-07-31T13:00:06;23.60;49.20
72206;DHT22;60111;48.286;7.812;2023-07-31T13:02:39;23.70;49.70
72206;DHT22;60111;48.286;7.812;2023-07-31T13:05:12;23.80;49.40
72206;DHT22;60111;48.286;7.812;2023-07-31T13:07:45;23.90;49.80
72206;DHT22;60111;48.286;7.812;2023-07-31T13:10:17;24.10;50.30
72206;DHT22;60111;48.286;7.812;2023-07-31T13:12:50;24.20;50.50
72206;DHT22;60111;48.286;7.812;2023-07-31T13:15:23;24.30;50.20
72206;DHT22;60111;48.286;7.812;2023-07-31T13:17:55;24.40;48.50
72206;DHT22;60111;48.286;7.812;2023-07-31T13:20:28;24.20;48.10
72206;DHT22;60111;48.286;7.812;2023-07-31T13:23:00;24.10;48.40
72206;DHT22;60111;48.286;7.812;2023-07-31T13:25:33;24.10;49.40
72206;DHT22;60111;48.286;7.812;2023-07-31T13:28:06;24.20;48.70
72206;DHT22;60111;48.286;7.812;2023-07-31T13:30:38;24.10;48.90
72206;DHT22;60111;48.286;7.812;2023-07-31T13:33:12;24.30;49.50
72206;DHT22;60111;48.286;7.812;2023-07-31T13:35:44;24.40;49.40
72206;DHT22;60111;48.286;7.812;2023-07-31T13:38:17;24.60;50.00
72206;DHT22;60111;48.286;7.812;2023-07-31T13:40:49;24.80;48.50
72206;DHT22;60111;48.286;7.812;2023-07-31T13:43:22;25.00;47.60
72206;DHT22;60111;48.286;7.812;2023-07-31T13:45:54;25.00;47.40
72206;DHT22;60111;48.286;7.812;2023-07-31T13:48:27;24.90;48.50
72206;DHT22;60111;48.286;7.812;2023-07-31T13:50:59;24.80;48.00
72206;DHT22;60111;48.286;7.812;2023-07-31T13:53:32;24.70;48.50
72206;DHT22;60111;48.286;7.812;2023-07-31T13:56:05;24.60;50.20
72206;DHT22;60111;48.286;7.812;2023-07-31T13:58:37;24.50;49.10
72206;DHT22;60111;48.286;7.812;2023-07-31T14:01:10;24.40;49.50
72206;DHT22;60111;48.286;7.812;2023-07-31T14:03:42;24.40;49.60
72206;DHT22;60111;48.286;7.812;2023-07-31T14:06:15;24.40;49.90
72206;DHT22;60111;48.286;7.812;2023-07-31T14:08:48;24.40;50.60
72206;DHT22;60111;48.286;7.812;2023-07-31T14:11:21;24.40;50.00
72206;DHT22;60111;48.286;7.812;2023-07-31T14:13:53;24.40;49.10
72206;DHT22;60111;48.286;7.812;2023-07-31T14:16:28;24.50;50.30
72206;DHT22;60111;48.286;7.812;2023-07-31T14:19:00;24.70;49.30
72206;DHT22;60111;48.286;7.812;2023-07-31T14:21:33;24.80;49.80
72206;DHT22;60111;48.286;7.812;2023-07-31T14:24:05;24.80;50.50
72206;DHT22;60111;48.286;7.812;2023-07-31T14:26:38;24.90;49.00
72206;DHT22;60111;48.286;7.812;2023-07-31T14:29:12;24.80;49.70
72206;DHT22;60111;48.286;7.812;2023-07-31T14:31:45;24.90;50.30
72206;DHT22;60111;48.286;7.812;2023-07-31T14:34:17;24.90;49.30
72206;DHT22;60111;48.286;7.812;2023-07-31T14:36:50;24.90;48.40
72206;DHT22;60111;48.286;7.812;2023-07-31T14:39:23;24.80;49.10
72206;DHT22;60111;48.286;7.812;2023-07-31T14:41:56;24.90;49.80
72206;DHT22;60111;48.286;7.812;2023-07-31T14:44:28;24.90;49.10
72206;DHT22;60111;48.286;7.812;2023-07-31T14:47:01;25.00;48.80
72206;DHT22;60111;48.286;7.812;2023-07-31T14:49:33;25.00;49.80
72206;DHT22;60111;48.286;7.812;2023-07-31T14:52:06;25.00;48.90
72206;DHT22;60111;48.286;7.812;2023-07-31T14:54:39;25.00;49.10
72206;DHT22;60111;48.286;7.812;2023-07-31T14:57:12;25.00;48.80
72206;DHT22;60111;48.286;7.812;2023-07-31T14:59:45;25.00;49.40
72206;DHT22;60111;48.286;7.812;2023-07-31T15:02:18;25.00;48.90
72206;DHT22;60111;48.286;7.812;2023-07-31T15:04:51;25.00;49.00
72206;DHT22;60111;48.286;7.812;2023-07-31T15:07:23;25.10;50.00
72206;DHT22;60111;48.286;7.812;2023-07-31T15:09:56;25.10;50.00
72206;DHT22;60111;48.286;7.812;2023-07-31T15:12:30;25.10;49.40
72206;DHT22;60111;48.286;7.812;2023-07-31T15:15:04;25.10;47.90
72206;DHT22;60111;48.286;7.812;2023-07-31T15:17:37;25.10;48.80
72206;DHT22;60111;48.286;7.812;2023-07-31T15:20:10;25.10;49.50
72206;DHT22;60111;48.286;7.812;2023-07-31T15:22:43;25.10;47.70
72206;DHT22;60111;48.286;7.812;2023-07-31T15:25:16;25.10;48.20
72206;DHT22;60111;48.286;7.812;2023-07-31T15:27:49;25.00;47.80
72206;DHT22;60111;48.286;7.812;2023-07-31T15:30:21;25.00;48.60
72206;DHT22;60111;48.286;7.812;2023-07-31T15:32:54;24.90;47.90
72206;DHT22;60111;48.286;7.812;2023-07-31T15:35:26;24.90;47.70
72206;DHT22;60111;48.286;7.812;2023-07-31T15:37:59;24.80;48.10
72206;DHT22;60111;48.286;7.812;2023-07-31T15:40:31;24.80;48.60
72206;DHT22;60111;48.286;7.812;2023-07-31T15:43:04;24.80;48.50
72206;DHT22;60111;48.286;7.812;2023-07-31T15:45:37;25.00;48.40
72206;DHT22;60111;48.286;7.812;2023-07-31T15:48:09;25.00;47.80
72206;DHT22;60111;48.286;7.812;2023-07-31T15:50:42;25.00;48.20
72206;DHT22;60111;48.286;7.812;2023-07-31T15:53:15;25.00;47.30
72206;DHT22;60111;48.286;7.812;2023-07-31T15:55:47;24.80;48.30
72206;DHT22;60111;48.286;7.812;2023-07-31T15:58:20;24.80;48.40
72206;DHT22;60111;48.286;7.812;2023-07-31T16:00:53;24.70;49.20
72206;DHT22;60111;48.286;7.812;2023-07-31T16:03:26;24.70;49.40
72206;DHT22;60111;48.286;7.812;2023-07-31T16:05:58;24.70;48.90
72206;DHT22;60111;48.286;7.812;2023-07-31T16:08:31;24.70;49.20
72206;DHT22;60111;48.286;7.812;2023-07-31T16:11:04;24.60;49.90
72206;DHT22;60111;48.286;7.812;2023-07-31T16:13:36;24.60;49.50
72206;DHT22;60111;48.286;7.812;2023-07-31T16:16:09;24.60;50.50
72206;DHT22;60111;48.286;7.812;2023-07-31T16:18:43;24.50;49.50